createdAt,value
2022-09-13T00:37:51.997Z,19.1
2022-09-13T00:57:51.989Z,19.1
2022-09-13T01:37:52.003Z,19.2
2022-09-13T02:19:22.526Z,19.3
2022-09-13T02:39:22.533Z,19.3
2022-09-13T02:57:52.027Z,19.2
2022-09-13T03:17:52.039Z,19.2
2022-09-13T03:57:52.052Z,19.0
2022-09-13T04:38:37.385Z,18.7
2022-09-13T05:17:52.081Z,18.7
2022-09-13T05:57:52.093Z,18.9
2022-09-13T06:37:52.110Z,19.4
2022-09-13T07:18:37.386Z,21.1
2022-09-13T07:37:52.144Z,22.0
2022-09-13T07:57:52.162Z,22.8
2022-09-13T08:17:52.177Z,23.2
2022-09-13T08:37:52.184Z,23.8
2022-09-13T08:57:52.189Z,24.3
2022-09-13T09:17:52.197Z,24.5
2022-09-13T09:37:52.212Z,24.9
2022-09-13T09:57:52.227Z,25.5
2022-09-13T10:17:52.231Z,25.5
2022-09-13T10:37:52.244Z,25.7
2022-09-13T10:57:52.247Z,26.1
2022-09-13T11:17:52.263Z,26.1
2022-09-13T11:37:52.265Z,25.9
2022-09-13T11:57:52.267Z,25.9
2022-09-13T12:17:52.276Z,26.0
2022-09-13T12:37:52.288Z,26.1
2022-09-13T12:57:52.300Z,26.1
2022-09-13T13:17:52.311Z,26.5
2022-09-13T13:37:52.321Z,26.8
2022-09-13T13:57:52.330Z,26.8
2022-09-13T14:17:52.341Z,26.8
2022-09-13T14:37:52.341Z,27.2
2022-09-13T14:57:52.360Z,26.7
2022-09-13T15:17:52.351Z,26.5
2022-09-13T15:37:52.363Z,25.9
2022-09-13T15:57:52.364Z,25.6
2022-09-13T16:17:52.375Z,25.0
2022-09-13T16:37:52.384Z,24.5
2022-09-13T16:57:52.389Z,24.0
2022-09-13T17:17:52.393Z,23.5
2022-09-13T17:37:52.395Z,23.1
2022-09-13T17:57:52.399Z,22.6
2022-09-13T18:17:52.406Z,22.1
2022-09-13T18:37:52.414Z,21.8
2022-09-13T18:57:52.421Z,21.3
2022-09-13T19:17:52.434Z,21.0
2022-09-13T19:37:52.427Z,20.7
2022-09-13T19:57:52.438Z,20.5
2022-09-13T20:17:52.445Z,20.3
2022-09-13T20:37:52.451Z,20.1
2022-09-13T20:57:52.458Z,19.9
2022-09-13T21:17:52.483Z,19.5
2022-09-13T21:37:52.466Z,19.1
2022-09-13T21:57:52.500Z,19.0
2022-09-13T22:17:52.480Z,18.9
2022-09-13T22:37:52.496Z,18.8
2022-09-13T22:57:52.500Z,18.7
2022-09-13T23:17:52.502Z,18.7
2022-09-13T23:37:52.508Z,18.5
